sensor_id;sensor_type;location;lat;lon;timestamp;P1;durP1;ratioP1;P2;durP2;ratioP2
21198;SDS011;10757;51.038;3.712;2023-01-29T00:00:03;44.30;;;26.58;;
21198;SDS011;10757;51.038;3.712;2023-01-29T00:02:34;39.22;;;24.40;;
21198;SDS011;10757;51.038;3.712;2023-01-29T00:05:00;41.80;;;25.63;;
21198;SDS011;10757;51.038;3.712;2023-01-29T00:07:26;44.08;;;26.45;;
21198;SDS011;10757;51.038;3.712;2023-01-29T00:09:52;41.72;;;26.80;;
21198;SDS011;10757;51.038;3.712;2023-01-29T00:12:17;47.15;;;27.90;;
21198;SDS011;10757;51.038;3.712;2023-01-29T00:14:43;43.05;;;26.80;;
21198;SDS011;10757;51.038;3.712;2023-01-29T00:17:08;42.15;;;24.98;;
21198;SDS011;10757;51.038;3.712;2023-01-29T00:19:34;41.88;;;26.35;;
21198;SDS011;10757;51.038;3.712;2023-01-29T00:22:00;49.03;;;27.92;;
21198;SDS011;10757;51.038;3.712;2023-01-29T00:24:25;41.28;;;26.52;;
21198;SDS011;10757;51.038;3.712;2023-01-29T00:26:51;44.88;;;26.13;;
21198;SDS011;10757;51.038;3.712;2023-01-29T00:29:17;48.58;;;27.63;;
21198;SDS011;10757;51.038;3.712;2023-01-29T00:31:43;43.28;;;27.15;;
21198;SDS011;10757;51.038;3.712;2023-01-29T00:34:09;41.90;;;26.52;;
21198;SDS011;10757;51.038;3.712;2023-01-29T00:36:35;49.03;;;27.75;;
21198;SDS011;10757;51.038;3.712;2023-01-29T00:39:00;45.15;;;28.08;;
21198;SDS011;10757;51.038;3.712;2023-01-29T00:41:34;45.00;;;27.27;;
21198;SDS011;10757;51.038;3.712;2023-01-29T00:44:33;47.90;;;28.33;;
21198;SDS011;10757;51.038;3.712;2023-01-29T00:47:17;44.13;;;27.17;;
21198;SDS011;10757;51.038;3.712;2023-01-29T00:49:55;43.80;;;27.52;;
21198;SDS011;10757;51.038;3.712;2023-01-29T00:52:21;51.22;;;28.35;;
21198;SDS011;10757;51.038;3.712;2023-01-29T00:54:54;44.67;;;26.55;;
21198;SDS011;10757;51.038;3.712;2023-01-29T00:57:22;50.67;;;28.55;;
21198;SDS011;10757;51.038;3.712;2023-01-29T00:59:50;49.05;;;29.42;;
21198;SDS011;10757;51.038;3.712;2023-01-29T01:02:16;48.15;;;28.88;;
21198;SDS011;10757;51.038;3.712;2023-01-29T01:05:01;48.58;;;29.35;;
21198;SDS011;10757;51.038;3.712;2023-01-29T01:07:30;51.45;;;29.42;;
21198;SDS011;10757;51.038;3.712;2023-01-29T01:09:56;55.60;;;29.95;;
21198;SDS011;10757;51.038;3.712;2023-01-29T01:12:40;48.20;;;29.05;;
21198;SDS011;10757;51.038;3.712;2023-01-29T01:15:06;47.92;;;29.73;;
21198;SDS011;10757;51.038;3.712;2023-01-29T01:17:32;47.83;;;28.08;;
21198;SDS011;10757;51.038;3.712;2023-01-29T01:19:58;46.80;;;28.50;;
21198;SDS011;10757;51.038;3.712;2023-01-29T01:22:24;49.70;;;28.05;;
21198;SDS011;10757;51.038;3.712;2023-01-29T01:24:50;46.13;;;27.67;;
21198;SDS011;10757;51.038;3.712;2023-01-29T01:27:16;47.67;;;29.05;;
21198;SDS011;10757;51.038;3.712;2023-01-29T01:29:43;42.67;;;26.33;;
21198;SDS011;10757;51.038;3.712;2023-01-29T01:32:12;46.25;;;27.85;;
21198;SDS011;10757;51.038;3.712;2023-01-29T01:34:39;47.83;;;28.60;;
21198;SDS011;10757;51.038;3.712;2023-01-29T01:37:05;44.47;;;27.88;;
21198;SDS011;10757;51.038;3.712;2023-01-29T01:39:31;44.78;;;26.85;;
21198;SDS011;10757;51.038;3.712;2023-01-29T01:41:56;47.13;;;27.75;;
21198;SDS011;10757;51.038;3.712;2023-01-29T01:47:15;42.67;;;25.92;;
21198;SDS011;10757;51.038;3.712;2023-01-29T01:49:43;45.35;;;27.23;;
21198;SDS011;10757;51.038;3.712;2023-01-29T01:52:10;43.67;;;27.23;;
21198;SDS011;10757;51.038;3.712;2023-01-29T01:54:40;45.17;;;26.40;;
21198;SDS011;10757;51.038;3.712;2023-01-29T01:57:12;47.25;;;28.42;;
21198;SDS011;10757;51.038;3.712;2023-01-29T01:59:45;45.40;;;28.15;;
21198;SDS011;10757;51.038;3.712;2023-01-29T02:02:13;44.80;;;27.48;;
21198;SDS011;10757;51.038;3.712;2023-01-29T02:04:59;44.58;;;27.45;;
21198;SDS011;10757;51.038;3.712;2023-01-29T02:07:44;48.67;;;27.52;;
21198;SDS011;10757;51.038;3.712;2023-01-29T02:10:30;45.63;;;26.27;;
21198;SDS011;10757;51.038;3.712;2023-01-29T02:13:03;40.53;;;26.38;;
21198;SDS011;10757;51.038;3.712;2023-01-29T02:15:30;46.53;;;27.73;;
21198;SDS011;10757;51.038;3.712;2023-01-29T02:17:56;47.33;;;27.13;;
21198;SDS011;10757;51.038;3.712;2023-01-29T02:20:26;46.67;;;28.10;;
21198;SDS011;10757;51.038;3.712;2023-01-29T02:28:03;43.58;;;26.70;;
21198;SDS011;10757;51.038;3.712;2023-01-29T02:30:48;42.42;;;25.92;;
21198;SDS011;10757;51.038;3.712;2023-01-29T02:33:25;45.92;;;28.15;;
21198;SDS011;10757;51.038;3.712;2023-01-29T02:41:07;46.72;;;26.83;;
21198;SDS011;10757;51.038;3.712;2023-01-29T02:52:24;43.92;;;25.48;;
21198;SDS011;10757;51.038;3.712;2023-01-29T02:55:08;41.45;;;25.05;;
21198;SDS011;10757;51.038;3.712;2023-01-29T02:57:40;42.88;;;26.63;;
21198;SDS011;10757;51.038;3.712;2023-01-29T03:00:23;41.35;;;24.85;;
21198;SDS011;10757;51.038;3.712;2023-01-29T03:06:00;40.38;;;24.52;;
21198;SDS011;10757;51.038;3.712;2023-01-29T03:08:39;38.88;;;23.98;;
21198;SDS011;10757;51.038;3.712;2023-01-29T03:11:12;41.42;;;25.13;;
21198;SDS011;10757;51.038;3.712;2023-01-29T03:18:58;43.67;;;25.80;;
21198;SDS011;10757;51.038;3.712;2023-01-29T03:21:35;41.53;;;24.25;;
21198;SDS011;10757;51.038;3.712;2023-01-29T03:27:36;37.85;;;22.92;;
21198;SDS011;10757;51.038;3.712;2023-01-29T03:30:35;41.58;;;24.40;;
21198;SDS011;10757;51.038;3.712;2023-01-29T03:33:25;37.33;;;23.30;;
21198;SDS011;10757;51.038;3.712;2023-01-29T03:35:57;37.17;;;23.70;;
21198;SDS011;10757;51.038;3.712;2023-01-29T03:38:28;44.50;;;24.95;;
21198;SDS011;10757;51.038;3.712;2023-01-29T03:41:04;45.85;;;24.90;;
21198;SDS011;10757;51.038;3.712;2023-01-29T03:46:25;40.88;;;24.88;;
21198;SDS011;10757;51.038;3.712;2023-01-29T03:48:59;42.55;;;24.80;;
21198;SDS011;10757;51.038;3.712;2023-01-29T03:51:34;42.17;;;24.85;;
21198;SDS011;10757;51.038;3.712;2023-01-29T03:57:26;38.75;;;23.90;;
21198;SDS011;10757;51.038;3.712;2023-01-29T04:02:59;40.80;;;25.00;;
21198;SDS011;10757;51.038;3.712;2023-01-29T04:08:54;39.17;;;22.27;;
21198;SDS011;10757;51.038;3.712;2023-01-29T04:11:46;39.60;;;24.10;;
21198;SDS011;10757;51.038;3.712;2023-01-29T04:14:15;37.28;;;23.75;;
21198;SDS011;10757;51.038;3.712;2023-01-29T04:16:43;38.60;;;23.70;;
21198;SDS011;10757;51.038;3.712;2023-01-29T04:19:14;37.88;;;23.13;;
21198;SDS011;10757;51.038;3.712;2023-01-29T04:21:40;37.97;;;23.25;;
21198;SDS011;10757;51.038;3.712;2023-01-29T04:24:06;39.30;;;23.58;;
21198;SDS011;10757;51.038;3.712;2023-01-29T04:26:38;37.85;;;23.63;;
21198;SDS011;10757;51.038;3.712;2023-01-29T04:32:10;40.00;;;25.05;;
21198;SDS011;10757;51.038;3.712;2023-01-29T04:37:34;39.92;;;23.35;;
21198;SDS011;10757;51.038;3.712;2023-01-29T04:42:48;35.30;;;21.95;;
21198;SDS011;10757;51.038;3.712;2023-01-29T04:50:39;36.63;;;22.42;;
21198;SDS011;10757;51.038;3.712;2023-01-29T04:53:22;46.13;;;23.02;;
21198;SDS011;10757;51.038;3.712;2023-01-29T04:55:57;38.53;;;23.40;;
21198;SDS011;10757;51.038;3.712;2023-01-29T04:58:38;40.85;;;23.88;;
21198;SDS011;10757;51.038;3.712;2023-01-29T05:01:13;36.03;;;22.73;;
21198;SDS011;10757;51.038;3.712;2023-01-29T05:03:42;39.85;;;21.88;;
21198;SDS011;10757;51.038;3.712;2023-01-29T05:06:13;37.63;;;21.77;;
21198;SDS011;10757;51.038;3.712;2023-01-29T05:08:42;38.35;;;23.13;;
21198;SDS011;10757;51.038;3.712;2023-01-29T05:11:08;37.45;;;23.48;;
21198;SDS011;10757;51.038;3.712;2023-01-29T05:13:35;37.47;;;23.52;;
21198;SDS011;10757;51.038;3.712;2023-01-29T05:16:05;39.85;;;24.42;;
21198;SDS011;10757;51.038;3.712;2023-01-29T05:18:41;34.78;;;24.88;;
21198;SDS011;10757;51.038;3.712;2023-01-29T05:21:07;40.58;;;24.50;;
21198;SDS011;10757;51.038;3.712;2023-01-29T05:23:34;43.20;;;26.50;;
21198;SDS011;10757;51.038;3.712;2023-01-29T05:26:00;38.80;;;24.67;;
21198;SDS011;10757;51.038;3.712;2023-01-29T05:28:25;38.65;;;23.67;;
21198;SDS011;10757;51.038;3.712;2023-01-29T05:30:52;42.15;;;25.38;;
21198;SDS011;10757;51.038;3.712;2023-01-29T05:33:23;41.30;;;24.05;;
21198;SDS011;10757;51.038;3.712;2023-01-29T05:35:50;46.35;;;24.38;;
21198;SDS011;10757;51.038;3.712;2023-01-29T05:38:17;42.28;;;24.08;;
21198;SDS011;10757;51.038;3.712;2023-01-29T05:40:44;36.17;;;22.27;;
21198;SDS011;10757;51.038;3.712;2023-01-29T05:48:25;38.65;;;23.48;;
21198;SDS011;10757;51.038;3.712;2023-01-29T05:50:52;36.85;;;23.42;;
21198;SDS011;10757;51.038;3.712;2023-01-29T05:53:19;39.97;;;23.00;;
21198;SDS011;10757;51.038;3.712;2023-01-29T05:55:45;42.40;;;23.75;;
21198;SDS011;10757;51.038;3.712;2023-01-29T05:58:11;39.00;;;21.00;;
21198;SDS011;10757;51.038;3.712;2023-01-29T06:00:38;42.55;;;21.33;;
21198;SDS011;10757;51.038;3.712;2023-01-29T06:03:04;39.58;;;22.52;;
21198;SDS011;10757;51.038;3.712;2023-01-29T06:05:30;40.30;;;23.05;;
21198;SDS011;10757;51.038;3.712;2023-01-29T06:07:56;36.53;;;22.73;;
21198;SDS011;10757;51.038;3.712;2023-01-29T06:10:22;36.50;;;23.27;;
21198;SDS011;10757;51.038;3.712;2023-01-29T06:12:47;34.97;;;21.55;;
21198;SDS011;10757;51.038;3.712;2023-01-29T06:15:13;40.28;;;23.80;;
21198;SDS011;10757;51.038;3.712;2023-01-29T06:17:43;40.40;;;24.13;;
21198;SDS011;10757;51.038;3.712;2023-01-29T06:20:09;46.58;;;24.20;;
21198;SDS011;10757;51.038;3.712;2023-01-29T06:22:36;38.72;;;22.58;;
21198;SDS011;10757;51.038;3.712;2023-01-29T06:25:02;36.72;;;22.00;;
21198;SDS011;10757;51.038;3.712;2023-01-29T06:27:28;32.22;;;20.92;;
21198;SDS011;10757;51.038;3.712;2023-01-29T06:29:53;35.60;;;22.52;;
21198;SDS011;10757;51.038;3.712;2023-01-29T06:32:19;35.08;;;21.75;;
21198;SDS011;10757;51.038;3.712;2023-01-29T06:34:45;36.03;;;22.85;;
21198;SDS011;10757;51.038;3.712;2023-01-29T06:37:10;36.83;;;22.77;;
21198;SDS011;10757;51.038;3.712;2023-01-29T06:39:36;38.35;;;22.90;;
21198;SDS011;10757;51.038;3.712;2023-01-29T06:42:02;38.75;;;22.70;;
21198;SDS011;10757;51.038;3.712;2023-01-29T06:44:28;35.17;;;23.55;;
21198;SDS011;10757;51.038;3.712;2023-01-29T06:46:54;36.50;;;21.92;;
21198;SDS011;10757;51.038;3.712;2023-01-29T06:49:19;34.95;;;21.95;;
21198;SDS011;10757;51.038;3.712;2023-01-29T06:51:46;34.45;;;21.50;;
21198;SDS011;10757;51.038;3.712;2023-01-29T06:54:12;33.95;;;20.65;;
21198;SDS011;10757;51.038;3.712;2023-01-29T06:56:38;36.03;;;20.10;;
21198;SDS011;10757;51.038;3.712;2023-01-29T06:59:03;33.90;;;21.33;;
21198;SDS011;10757;51.038;3.712;2023-01-29T07:01:29;32.25;;;20.38;;
21198;SDS011;10757;51.038;3.712;2023-01-29T07:03:55;35.72;;;20.65;;
21198;SDS011;10757;51.038;3.712;2023-01-29T07:06:25;29.75;;;19.15;;
21198;SDS011;10757;51.038;3.712;2023-01-29T07:08:52;33.92;;;21.52;;
21198;SDS011;10757;51.038;3.712;2023-01-29T07:11:17;38.67;;;22.42;;
21198;SDS011;10757;51.038;3.712;2023-01-29T07:13:43;32.97;;;20.92;;
21198;SDS011;10757;51.038;3.712;2023-01-29T07:16:09;34.65;;;20.83;;
21198;SDS011;10757;51.038;3.712;2023-01-29T07:18:35;37.88;;;20.90;;
21198;SDS011;10757;51.038;3.712;2023-01-29T07:21:04;37.22;;;21.58;;
21198;SDS011;10757;51.038;3.712;2023-01-29T07:23:31;37.17;;;22.20;;
21198;SDS011;10757;51.038;3.712;2023-01-29T07:26:04;37.67;;;23.15;;
21198;SDS011;10757;51.038;3.712;2023-01-29T07:28:34;34.33;;;21.73;;
21198;SDS011;10757;51.038;3.712;2023-01-29T07:31:04;36.45;;;21.13;;
21198;SDS011;10757;51.038;3.712;2023-01-29T07:33:31;38.38;;;22.50;;
21198;SDS011;10757;51.038;3.712;2023-01-29T07:35:57;42.15;;;23.35;;
21198;SDS011;10757;51.038;3.712;2023-01-29T07:38:22;41.38;;;23.02;;
21198;SDS011;10757;51.038;3.712;2023-01-29T07:40:50;42.17;;;24.27;;
21198;SDS011;10757;51.038;3.712;2023-01-29T07:43:16;40.45;;;22.38;;
21198;SDS011;10757;51.038;3.712;2023-01-29T07:45:42;38.85;;;23.15;;
21198;SDS011;10757;51.038;3.712;2023-01-29T07:48:09;34.45;;;22.33;;
21198;SDS011;10757;51.038;3.712;2023-01-29T07:50:36;35.95;;;23.13;;
21198;SDS011;10757;51.038;3.712;2023-01-29T07:53:03;37.05;;;22.08;;
21198;SDS011;10757;51.038;3.712;2023-01-29T07:55:29;38.30;;;24.42;;
21198;SDS011;10757;51.038;3.712;2023-01-29T07:57:55;36.08;;;22.35;;
21198;SDS011;10757;51.038;3.712;2023-01-29T08:00:26;41.83;;;24.02;;
21198;SDS011;10757;51.038;3.712;2023-01-29T08:02:52;35.67;;;23.38;;
21198;SDS011;10757;51.038;3.712;2023-01-29T08:05:18;36.30;;;21.77;;
21198;SDS011;10757;51.038;3.712;2023-01-29T08:07:44;39.03;;;22.27;;
21198;SDS011;10757;51.038;3.712;2023-01-29T08:10:10;38.15;;;22.80;;
21198;SDS011;10757;51.038;3.712;2023-01-29T08:12:36;53.45;;;24.08;;
21198;SDS011;10757;51.038;3.712;2023-01-29T08:15:02;38.55;;;21.98;;
21198;SDS011;10757;51.038;3.712;2023-01-29T08:17:31;36.97;;;20.95;;
21198;SDS011;10757;51.038;3.712;2023-01-29T08:19:57;37.05;;;22.10;;
21198;SDS011;10757;51.038;3.712;2023-01-29T08:22:22;36.63;;;23.02;;
21198;SDS011;10757;51.038;3.712;2023-01-29T08:24:48;37.03;;;22.25;;
21198;SDS011;10757;51.038;3.712;2023-01-29T08:27:14;37.58;;;23.50;;
21198;SDS011;10757;51.038;3.712;2023-01-29T08:29:40;40.88;;;22.35;;
21198;SDS011;10757;51.038;3.712;2023-01-29T08:32:08;36.58;;;22.70;;
21198;SDS011;10757;51.038;3.712;2023-01-29T08:34:35;45.58;;;23.33;;
21198;SDS011;10757;51.038;3.712;2023-01-29T08:37:00;38.28;;;21.73;;
21198;SDS011;10757;51.038;3.712;2023-01-29T08:39:26;39.60;;;21.08;;
21198;SDS011;10757;51.038;3.712;2023-01-29T08:41:53;39.90;;;19.23;;
21198;SDS011;10757;51.038;3.712;2023-01-29T08:44:19;40.53;;;23.83;;
21198;SDS011;10757;51.038;3.712;2023-01-29T08:46:44;36.08;;;21.33;;
21198;SDS011;10757;51.038;3.712;2023-01-29T08:49:10;45.55;;;22.20;;
21198;SDS011;10757;51.038;3.712;2023-01-29T08:51:36;40.97;;;22.27;;
21198;SDS011;10757;51.038;3.712;2023-01-29T08:54:01;34.85;;;21.77;;
21198;SDS011;10757;51.038;3.712;2023-01-29T08:56:27;39.13;;;22.45;;
21198;SDS011;10757;51.038;3.712;2023-01-29T08:58:53;36.90;;;21.25;;
21198;SDS011;10757;51.038;3.712;2023-01-29T09:01:19;39.50;;;22.45;;
21198;SDS011;10757;51.038;3.712;2023-01-29T09:03:44;37.00;;;21.55;;
21198;SDS011;10757;51.038;3.712;2023-01-29T09:06:11;35.13;;;21.90;;
21198;SDS011;10757;51.038;3.712;2023-01-29T09:08:38;34.38;;;20.42;;
21198;SDS011;10757;51.038;3.712;2023-01-29T09:11:05;40.38;;;21.88;;
21198;SDS011;10757;51.038;3.712;2023-01-29T09:13:31;39.90;;;20.15;;
21198;SDS011;10757;51.038;3.712;2023-01-29T09:15:58;35.78;;;20.33;;
21198;SDS011;10757;51.038;3.712;2023-01-29T09:18:27;35.35;;;21.38;;
21198;SDS011;10757;51.038;3.712;2023-01-29T09:20:54;36.15;;;20.98;;
21198;SDS011;10757;51.038;3.712;2023-01-29T09:23:20;33.17;;;20.38;;
21198;SDS011;10757;51.038;3.712;2023-01-29T09:25:46;38.05;;;21.50;;
21198;SDS011;10757;51.038;3.712;2023-01-29T09:28:12;33.33;;;20.05;;
21198;SDS011;10757;51.038;3.712;2023-01-29T09:30:38;42.55;;;20.98;;
21198;SDS011;10757;51.038;3.712;2023-01-29T09:33:04;35.22;;;20.85;;
21198;SDS011;10757;51.038;3.712;2023-01-29T09:35:31;37.13;;;21.02;;
21198;SDS011;10757;51.038;3.712;2023-01-29T09:37:57;34.63;;;21.10;;
21198;SDS011;10757;51.038;3.712;2023-01-29T09:40:30;40.30;;;21.35;;
21198;SDS011;10757;51.038;3.712;2023-01-29T09:43:09;35.30;;;20.95;;
21198;SDS011;10757;51.038;3.712;2023-01-29T09:46:00;31.08;;;19.75;;
21198;SDS011;10757;51.038;3.712;2023-01-29T09:48:39;31.40;;;20.48;;
21198;SDS011;10757;51.038;3.712;2023-01-29T09:51:09;39.88;;;21.25;;
21198;SDS011;10757;51.038;3.712;2023-01-29T09:53:46;31.88;;;19.08;;
21198;SDS011;10757;51.038;3.712;2023-01-29T09:56:37;29.88;;;18.95;;
21198;SDS011;10757;51.038;3.712;2023-01-29T09:59:02;33.30;;;20.38;;
21198;SDS011;10757;51.038;3.712;2023-01-29T10:01:48;33.45;;;21.13;;
21198;SDS011;10757;51.038;3.712;2023-01-29T10:26:32;36.75;;;20.02;;
21198;SDS011;10757;51.038;3.712;2023-01-29T10:28:59;34.22;;;20.10;;
21198;SDS011;10757;51.038;3.712;2023-01-29T10:31:30;36.00;;;20.60;;
21198;SDS011;10757;51.038;3.712;2023-01-29T10:40:23;31.80;;;20.83;;
21198;SDS011;10757;51.038;3.712;2023-01-29T10:48:23;31.25;;;18.48;;
21198;SDS011;10757;51.038;3.712;2023-01-29T10:56:29;35.75;;;20.77;;
21198;SDS011;10757;51.038;3.712;2023-01-29T10:59:09;30.92;;;19.25;;
21198;SDS011;10757;51.038;3.712;2023-01-29T11:01:50;34.08;;;19.38;;
21198;SDS011;10757;51.038;3.712;2023-01-29T11:04:21;35.38;;;20.20;;
21198;SDS011;10757;51.038;3.712;2023-01-29T11:06:47;33.97;;;20.33;;
21198;SDS011;10757;51.038;3.712;2023-01-29T11:14:55;28.35;;;18.80;;
21198;SDS011;10757;51.038;3.712;2023-01-29T11:17:24;30.05;;;18.88;;
21198;SDS011;10757;51.038;3.712;2023-01-29T11:19:50;43.85;;;20.33;;
21198;SDS011;10757;51.038;3.712;2023-01-29T11:22:20;29.80;;;19.20;;
21198;SDS011;10757;51.038;3.712;2023-01-29T11:27:39;25.58;;;17.13;;
21198;SDS011;10757;51.038;3.712;2023-01-29T11:30:30;26.02;;;18.10;;
21198;SDS011;10757;51.038;3.712;2023-01-29T11:35:34;28.85;;;18.35;;
21198;SDS011;10757;51.038;3.712;2023-01-29T11:40:51;31.85;;;18.70;;
21198;SDS011;10757;51.038;3.712;2023-01-29T11:43:21;26.73;;;17.23;;
21198;SDS011;10757;51.038;3.712;2023-01-29T11:45:52;27.15;;;17.63;;
21198;SDS011;10757;51.038;3.712;2023-01-29T11:48:23;28.42;;;17.67;;
21198;SDS011;10757;51.038;3.712;2023-01-29T11:50:56;31.88;;;18.13;;
21198;SDS011;10757;51.038;3.712;2023-01-29T11:56:31;30.02;;;17.85;;
21198;SDS011;10757;51.038;3.712;2023-01-29T11:58:54;26.85;;;16.20;;
21198;SDS011;10757;51.038;3.712;2023-01-29T12:01:29;27.67;;;16.13;;
21198;SDS011;10757;51.038;3.712;2023-01-29T12:04:03;25.92;;;17.17;;
21198;SDS011;10757;51.038;3.712;2023-01-29T12:06:42;25.75;;;16.05;;
21198;SDS011;10757;51.038;3.712;2023-01-29T12:09:09;26.05;;;14.88;;
21198;SDS011;10757;51.038;3.712;2023-01-29T12:11:39;26.40;;;16.95;;
21198;SDS011;10757;51.038;3.712;2023-01-29T12:14:19;24.98;;;16.20;;
21198;SDS011;10757;51.038;3.712;2023-01-29T12:22:22;24.98;;;16.40;;
21198;SDS011;10757;51.038;3.712;2023-01-29T12:24:56;32.33;;;15.48;;
21198;SDS011;10757;51.038;3.712;2023-01-29T12:36:11;24.25;;;16.05;;
21198;SDS011;10757;51.038;3.712;2023-01-29T12:38:42;28.92;;;17.08;;
21198;SDS011;10757;51.038;3.712;2023-01-29T12:41:17;22.75;;;15.07;;
21198;SDS011;10757;51.038;3.712;2023-01-29T12:43:50;29.92;;;17.13;;
21198;SDS011;10757;51.038;3.712;2023-01-29T12:46:27;25.05;;;16.42;;
21198;SDS011;10757;51.038;3.712;2023-01-29T12:49:09;33.92;;;17.58;;
21198;SDS011;10757;51.038;3.712;2023-01-29T12:54:45;25.35;;;16.92;;
21198;SDS011;10757;51.038;3.712;2023-01-29T12:57:22;31.55;;;17.50;;
21198;SDS011;10757;51.038;3.712;2023-01-29T13:00:28;32.05;;;18.33;;
21198;SDS011;10757;51.038;3.712;2023-01-29T13:10:45;33.15;;;18.30;;
21198;SDS011;10757;51.038;3.712;2023-01-29T13:13:23;31.00;;;17.63;;
21198;SDS011;10757;51.038;3.712;2023-01-29T13:15:52;27.50;;;16.58;;
21198;SDS011;10757;51.038;3.712;2023-01-29T13:18:23;25.95;;;16.40;;
21198;SDS011;10757;51.038;3.712;2023-01-29T13:21:04;30.98;;;18.33;;
21198;SDS011;10757;51.038;3.712;2023-01-29T13:23:33;28.17;;;17.27;;
21198;SDS011;10757;51.038;3.712;2023-01-29T13:26:02;34.25;;;19.27;;
21198;SDS011;10757;51.038;3.712;2023-01-29T13:28:30;30.88;;;18.40;;
21198;SDS011;10757;51.038;3.712;2023-01-29T13:37:11;29.88;;;19.38;;
21198;SDS011;10757;51.038;3.712;2023-01-29T13:39:52;33.47;;;18.75;;
21198;SDS011;10757;51.038;3.712;2023-01-29T13:42:31;29.67;;;18.60;;
21198;SDS011;10757;51.038;3.712;2023-01-29T13:45:06;32.85;;;18.70;;
21198;SDS011;10757;51.038;3.712;2023-01-29T13:47:36;30.55;;;19.23;;
21198;SDS011;10757;51.038;3.712;2023-01-29T13:50:08;30.08;;;19.90;;
21198;SDS011;10757;51.038;3.712;2023-01-29T13:52:59;30.00;;;18.20;;
21198;SDS011;10757;51.038;3.712;2023-01-29T13:55:31;32.38;;;18.17;;
21198;SDS011;10757;51.038;3.712;2023-01-29T13:57:59;31.85;;;19.00;;
21198;SDS011;10757;51.038;3.712;2023-01-29T14:05:39;33.78;;;18.55;;
21198;SDS011;10757;51.038;3.712;2023-01-29T14:13:43;32.55;;;18.45;;
21198;SDS011;10757;51.038;3.712;2023-01-29T14:18:44;32.17;;;19.63;;
21198;SDS011;10757;51.038;3.712;2023-01-29T14:34:30;29.67;;;19.35;;
21198;SDS011;10757;51.038;3.712;2023-01-29T14:37:15;31.08;;;19.40;;
21198;SDS011;10757;51.038;3.712;2023-01-29T14:43:03;31.80;;;19.42;;
21198;SDS011;10757;51.038;3.712;2023-01-29T14:45:36;29.80;;;18.45;;
21198;SDS011;10757;51.038;3.712;2023-01-29T14:51:10;31.73;;;18.33;;
21198;SDS011;10757;51.038;3.712;2023-01-29T14:53:48;35.85;;;19.08;;
21198;SDS011;10757;51.038;3.712;2023-01-29T14:59:36;37.67;;;21.52;;
21198;SDS011;10757;51.038;3.712;2023-01-29T15:04:47;34.33;;;19.70;;
21198;SDS011;10757;51.038;3.712;2023-01-29T15:07:38;31.05;;;19.13;;
21198;SDS011;10757;51.038;3.712;2023-01-29T15:10:19;33.45;;;18.95;;
21198;SDS011;10757;51.038;3.712;2023-01-29T15:13:00;47.35;;;20.10;;
21198;SDS011;10757;51.038;3.712;2023-01-29T15:18:19;40.92;;;18.55;;
21198;SDS011;10757;51.038;3.712;2023-01-29T15:21:01;32.88;;;20.20;;
21198;SDS011;10757;51.038;3.712;2023-01-29T15:23:30;29.92;;;18.70;;
21198;SDS011;10757;51.038;3.712;2023-01-29T15:26:05;29.85;;;19.63;;
21198;SDS011;10757;51.038;3.712;2023-01-29T15:28:41;30.48;;;17.85;;
21198;SDS011;10757;51.038;3.712;2023-01-29T15:33:47;31.48;;;19.13;;
21198;SDS011;10757;51.038;3.712;2023-01-29T15:36:20;30.73;;;18.42;;
21198;SDS011;10757;51.038;3.712;2023-01-29T15:39:05;32.63;;;17.55;;
21198;SDS011;10757;51.038;3.712;2023-01-29T15:41:38;28.40;;;17.80;;
21198;SDS011;10757;51.038;3.712;2023-01-29T15:44:22;28.77;;;18.95;;
21198;SDS011;10757;51.038;3.712;2023-01-29T15:46:58;28.50;;;18.30;;
21198;SDS011;10757;51.038;3.712;2023-01-29T15:49:32;27.83;;;17.85;;
21198;SDS011;10757;51.038;3.712;2023-01-29T15:52:02;31.15;;;18.95;;
21198;SDS011;10757;51.038;3.712;2023-01-29T15:54:35;28.92;;;18.73;;
21198;SDS011;10757;51.038;3.712;2023-01-29T15:57:02;28.45;;;18.33;;
21198;SDS011;10757;51.038;3.712;2023-01-29T15:59:34;26.02;;;18.00;;
21198;SDS011;10757;51.038;3.712;2023-01-29T16:02:48;30.58;;;18.65;;
21198;SDS011;10757;51.038;3.712;2023-01-29T16:05:16;28.63;;;16.95;;
21198;SDS011;10757;51.038;3.712;2023-01-29T16:07:44;26.08;;;17.30;;
21198;SDS011;10757;51.038;3.712;2023-01-29T16:12:50;31.17;;;18.55;;
21198;SDS011;10757;51.038;3.712;2023-01-29T16:15:22;29.67;;;18.77;;
21198;SDS011;10757;51.038;3.712;2023-01-29T16:17:54;30.08;;;19.08;;
21198;SDS011;10757;51.038;3.712;2023-01-29T16:23:30;26.15;;;15.27;;
21198;SDS011;10757;51.038;3.712;2023-01-29T16:26:07;32.47;;;18.95;;
21198;SDS011;10757;51.038;3.712;2023-01-29T16:28:40;32.95;;;19.25;;
21198;SDS011;10757;51.038;3.712;2023-01-29T16:31:11;32.75;;;19.48;;
21198;SDS011;10757;51.038;3.712;2023-01-29T16:33:44;33.33;;;19.77;;
21198;SDS011;10757;51.038;3.712;2023-01-29T16:36:20;32.22;;;19.52;;
21198;SDS011;10757;51.038;3.712;2023-01-29T16:38:53;29.25;;;18.77;;
21198;SDS011;10757;51.038;3.712;2023-01-29T16:43:49;33.58;;;21.35;;
21198;SDS011;10757;51.038;3.712;2023-01-29T16:46:17;32.67;;;20.50;;
21198;SDS011;10757;51.038;3.712;2023-01-29T16:49:00;27.02;;;18.48;;
21198;SDS011;10757;51.038;3.712;2023-01-29T16:51:31;31.00;;;18.17;;
21198;SDS011;10757;51.038;3.712;2023-01-29T16:54:06;30.15;;;18.25;;
21198;SDS011;10757;51.038;3.712;2023-01-29T16:56:37;36.08;;;21.48;;
21198;SDS011;10757;51.038;3.712;2023-01-29T16:59:04;32.33;;;20.40;;
21198;SDS011;10757;51.038;3.712;2023-01-29T17:01:31;33.13;;;20.00;;
21198;SDS011;10757;51.038;3.712;2023-01-29T17:04:08;32.38;;;20.30;;
21198;SDS011;10757;51.038;3.712;2023-01-29T17:06:43;37.67;;;21.33;;
21198;SDS011;10757;51.038;3.712;2023-01-29T17:09:25;30.25;;;19.08;;
21198;SDS011;10757;51.038;3.712;2023-01-29T17:11:58;34.67;;;20.83;;
21198;SDS011;10757;51.038;3.712;2023-01-29T17:14:30;30.00;;;18.85;;
21198;SDS011;10757;51.038;3.712;2023-01-29T17:17:04;30.77;;;21.08;;
21198;SDS011;10757;51.038;3.712;2023-01-29T17:19:37;32.85;;;19.98;;
21198;SDS011;10757;51.038;3.712;2023-01-29T17:22:03;35.50;;;20.20;;
21198;SDS011;10757;51.038;3.712;2023-01-29T17:24:32;30.80;;;19.33;;
21198;SDS011;10757;51.038;3.712;2023-01-29T17:27:01;29.65;;;19.10;;
21198;SDS011;10757;51.038;3.712;2023-01-29T17:29:28;35.40;;;21.52;;
21198;SDS011;10757;51.038;3.712;2023-01-29T17:31:55;36.28;;;20.75;;
21198;SDS011;10757;51.038;3.712;2023-01-29T17:34:24;30.98;;;20.15;;
21198;SDS011;10757;51.038;3.712;2023-01-29T17:36:50;37.20;;;21.75;;
21198;SDS011;10757;51.038;3.712;2023-01-29T17:41:49;33.13;;;20.42;;
21198;SDS011;10757;51.038;3.712;2023-01-29T17:44:17;34.25;;;20.77;;
21198;SDS011;10757;51.038;3.712;2023-01-29T17:46:44;34.38;;;20.48;;
21198;SDS011;10757;51.038;3.712;2023-01-29T17:51:53;32.55;;;20.83;;
21198;SDS011;10757;51.038;3.712;2023-01-29T17:54:20;43.85;;;20.77;;
21198;SDS011;10757;51.038;3.712;2023-01-29T17:56:46;36.40;;;21.17;;
21198;SDS011;10757;51.038;3.712;2023-01-29T17:59:17;36.47;;;21.63;;
21198;SDS011;10757;51.038;3.712;2023-01-29T18:01:46;32.85;;;21.30;;
21198;SDS011;10757;51.038;3.712;2023-01-29T18:04:13;31.75;;;20.60;;
21198;SDS011;10757;51.038;3.712;2023-01-29T18:06:39;35.10;;;20.45;;
21198;SDS011;10757;51.038;3.712;2023-01-29T18:09:06;32.78;;;21.33;;
21198;SDS011;10757;51.038;3.712;2023-01-29T18:11:39;38.42;;;21.52;;